Terminal Aerodrome Forecast
Issued by NWS

Home | Current Version | Previous Version | Text Only | Print | Product List | Glossary On
Versions: 1 2 3 4 5 6 7 8 9 10 11 12 13 14 15 16 17 18 19 20 21 22 23 24 25 26 27 28 29
000
FTUS44 KHGX 020905 AAB
TAFUTS
TAF AMD
KUTS 020905Z 0209/0306 18006KT P6SM BKN012 BKN018
      TEMPO 0209/0212 4SM BR BKN005
     FM021400 19008KT P6SM SCT015 BKN025
     FM021800 17011KT P6SM SCT025 BKN050
     FM022200 18012KT P6SM VCSH BKN050
     FM030200 18011KT P6SM VCTS BKN040CB PROB30 0302/0306 TSRA=

USA.gov is the U.S. government's official web portal to all federal, state and local government web resources and services.